Time;durP1;ratioP1;P1;durP2;ratioP2;P2;SDS_P1;SDS_P2;PMS_P1;PMS_P2;Temp;Humidity;BMP_temperature;BMP_pressure;BME280_temperature;BME280_humidity;BME280_pressure;Samples;Min_cycle;Max_cycle;Signal;HPM_P1;HPM_P2
2021/01/29 00:02:16;;;;;;;1.95;1.15;;;12.90;58.70;;;;;;10289699;28;20387;-57
2021/01/29 00:07:17;;;;;;;1.77;1.27;;;12.90;58.60;;;;;;10290830;28;20047;-57
2021/01/29 00:12:17;;;;;;;1.77;1.10;;;12.90;58.60;;;;;;10294959;28;20037;-56
2021/01/29 00:17:18;;;;;;;1.77;1.05;;;12.90;58.60;;;;;;10298398;28;20396;-57
2021/01/29 00:22:19;;;;;;;1.42;1.10;;;12.90;58.60;;;;;;10297130;28;20415;-58
2021/01/29 00:27:19;;;;;;;1.33;0.90;;;12.90;58.50;;;;;;10298030;28;20027;-57
2021/01/29 00:32:20;;;;;;;2.05;1.30;;;12.90;58.50;;;;;;10294672;28;20027;-57
2021/01/29 00:37:21;;;;;;;2.72;0.90;;;13.00;58.50;;;;;;10297932;28;20063;-58
2021/01/29 00:42:21;;;;;;;1.15;0.73;;;13.00;58.40;;;;;;10297625;28;20113;-56
2021/01/29 00:47:22;;;;;;;1.88;0.90;;;13.00;58.40;;;;;;10297538;28;20023;-57
2021/01/29 00:52:23;;;;;;;2.17;1.33;;;13.00;58.40;;;;;;10297800;28;20070;-57
2021/01/29 00:57:24;;;;;;;1.55;0.82;;;13.10;58.40;;;;;;10296939;28;20511;-57
2021/01/29 01:02:24;;;;;;;1.70;1.10;;;13.10;58.50;;;;;;10283833;28;20121;-57
2021/01/29 01:07:25;;;;;;;1.85;0.88;;;13.10;58.40;;;;;;10269542;28;20177;-58
2021/01/29 01:12:26;;;;;;;1.58;0.98;;;13.10;58.50;;;;;;10303563;28;20030;-58
2021/01/29 01:17:27;;;;;;;1.90;0.80;;;13.10;58.40;;;;;;10296268;28;20038;-57
2021/01/29 01:22:27;;;;;;;2.35;1.20;;;13.10;58.30;;;;;;10284821;28;20034;-57
2021/01/29 01:27:28;;;;;;;1.88;0.85;;;13.20;58.30;;;;;;10293374;28;20035;-57
2021/01/29 01:32:29;;;;;;;1.50;0.85;;;13.20;58.40;;;;;;10293017;28;20567;-58
2021/01/29 01:37:29;;;;;;;1.27;0.88;;;13.20;58.30;;;;;;10285974;28;20472;-58
2021/01/29 01:42:30;;;;;;;1.40;0.80;;;13.20;58.30;;;;;;10294345;28;20038;-58
2021/01/29 01:47:40;;;;;;;1.70;1.15;;;13.20;58.20;;;;;;10293974;28;20034;-57
2021/01/29 01:52:42;;;;;;;2.10;1.23;;;13.20;58.10;;;;;;10307614;28;20161;-57
2021/01/29 01:57:47;;;;;;;1.83;1.00;;;13.30;58.20;;;;;;10294164;28;20031;-57
2021/01/29 02:02:53;;;;;;;1.85;1.10;;;13.30;58.20;;;;;;10284433;28;20078;-57
2021/01/29 02:08:18;;;;;;;1.90;1.10;;;13.20;58.20;;;;;;10281000;28;20089;-57
2021/01/29 02:13:18;;;;;;;2.13;1.20;;;13.30;58.20;;;;;;10274530;28;20046;-56
2021/01/29 02:19:12;;;;;;;1.77;1.05;;;13.20;58.20;;;;;;10294040;28;20126;-57
2021/01/29 02:25:09;;;;;;;2.05;1.10;;;13.30;58.70;;;;;;10299395;28;20070;-57
2021/01/29 02:31:00;;;;;;;1.50;1.00;;;13.30;58.20;;;;;;10302285;28;20496;-58
2021/01/29 02:36:24;;;;;;;1.77;1.00;;;13.40;58.10;;;;;;10280582;28;20043;-57
2021/01/29 02:41:56;;;;;;;1.52;0.88;;;13.40;58.10;;;;;;10293240;28;20037;-57
2021/01/29 02:47:01;;;;;;;1.80;1.02;;;13.40;58.00;;;;;;10292812;28;20420;-58
2021/01/29 02:52:24;;;;;;;3.53;1.27;;;13.40;58.10;;;;;;10291841;28;20467;-58
2021/01/29 02:57:59;;;;;;;1.88;1.20;;;13.40;58.00;;;;;;10279594;28;20117;-58
2021/01/29 03:03:24;;;;;;;2.38;1.50;;;13.50;58.00;;;;;;10296074;28;20039;-57
2021/01/29 03:08:42;;;;;;;2.97;1.10;;;13.50;58.00;;;;;;10291806;28;20085;-58
2021/01/29 03:14:24;;;;;;;1.63;1.13;;;13.50;58.00;;;;;;10290800;28;20352;-57
2021/01/29 03:20:03;;;;;;;2.83;1.20;;;13.50;58.00;;;;;;10292352;28;20031;-58
2021/01/29 03:25:33;;;;;;;1.77;1.27;;;13.50;58.00;;;;;;10273133;28;20049;-58
2021/01/29 03:30:39;;;;;;;1.43;1.03;;;13.50;58.00;;;;;;10282073;28;20031;-58
2021/01/29 03:35:46;;;;;;;2.58;1.27;;;13.50;58.60;;;;;;10281366;28;20431;-58
2021/01/29 03:41:25;;;;;;;1.73;1.08;;;13.50;57.90;;;;;;10290175;28;20069;-58
2021/01/29 03:46:59;;;;;;;2.42;1.30;;;13.50;57.90;;;;;;10292693;28;20125;-58
2021/01/29 03:52:22;;;;;;;2.45;1.60;;;13.60;57.90;;;;;;10299645;28;20049;-57
2021/01/29 03:58:08;;;;;;;1.90;1.50;;;13.60;58.00;;;;;;10285110;28;20479;-57
2021/01/29 04:03:37;;;;;;;1.25;1.00;;;13.60;57.80;;;;;;10289380;28;20438;-57
2021/01/29 04:09:09;;;;;;;1.77;1.08;;;13.60;57.90;;;;;;10299084;28;20042;-58
2021/01/29 04:14:29;;;;;;;1.35;1.08;;;13.60;57.80;;;;;;10290584;28;20534;-58
2021/01/29 04:19:33;;;;;;;2.53;1.20;;;13.60;57.90;;;;;;10283293;28;20022;-58
2021/01/29 04:24:41;;;;;;;1.60;1.05;;;13.70;57.90;;;;;;10297203;28;20031;-57
2021/01/29 04:30:02;;;;;;;1.98;1.00;;;13.70;58.50;;;;;;10294002;28;20475;-57
2021/01/29 04:35:06;;;;;;;1.52;0.98;;;13.70;57.90;;;;;;10291451;28;20035;-57
2021/01/29 04:40:26;;;;;;;2.30;1.20;;;13.60;57.80;;;;;;10294741;28;20101;-58
2021/01/29 04:46:00;;;;;;;1.70;1.20;;;13.70;57.80;;;;;;10275456;28;20127;-58
2021/01/29 04:51:34;;;;;;;1.90;1.10;;;13.70;57.70;;;;;;10286206;28;20034;-58
2021/01/29 04:57:38;;;;;;;1.52;0.93;;;13.70;57.70;;;;;;10294739;28;20027;-58
2021/01/29 05:03:00;;;;;;;2.05;0.98;;;13.80;57.80;;;;;;10282196;28;20118;-57
2021/01/29 05:08:47;;;;;;;2.08;1.13;;;13.70;57.80;;;;;;10295066;28;20051;-57
2021/01/29 05:14:17;;;;;;;2.33;1.17;;;13.80;57.90;;;;;;10283417;28;20039;-57
2021/01/29 05:19:54;;;;;;;1.65;1.10;;;13.80;57.80;;;;;;10295075;28;20019;-57
2021/01/29 05:25:23;;;;;;;1.85;1.13;;;13.80;57.70;;;;;;10296610;28;20468;-57
2021/01/29 05:30:56;;;;;;;2.10;1.05;;;13.80;57.70;;;;;;10310851;28;20027;-57
2021/01/29 05:36:15;;;;;;;1.70;1.33;;;13.90;57.80;;;;;;10289683;28;20093;-57
2021/01/29 05:41:53;;;;;;;1.33;0.98;;;13.80;57.80;;;;;;10295738;28;20041;-57
2021/01/29 05:47:35;;;;;;;1.85;1.00;;;13.90;57.80;;;;;;10293911;28;20121;-57
2021/01/29 05:53:05;;;;;;;1.63;1.10;;;13.90;57.70;;;;;;10288562;28;20468;-56
2021/01/29 05:58:40;;;;;;;1.77;1.20;;;13.90;57.80;;;;;;10286779;28;20096;-59
2021/01/29 06:04:33;;;;;;;1.25;0.85;;;13.90;57.80;;;;;;10283717;28;20037;-57
2021/01/29 06:10:00;;;;;;;1.77;0.88;;;14.00;57.70;;;;;;10282039;28;20178;-57
2021/01/29 06:15:37;;;;;;;1.88;1.15;;;13.90;57.70;;;;;;10293347;28;20027;-57
2021/01/29 06:21:20;;;;;;;1.50;1.00;;;14.00;57.70;;;;;;10293800;28;20035;-58
2021/01/29 06:27:04;;;;;;;2.13;1.15;;;14.00;57.50;;;;;;10292640;28;20039;-58
2021/01/29 06:33:08;;;;;;;1.73;1.00;;;13.90;57.80;;;;;;10287664;28;20030;-56
2021/01/29 06:38:47;;;;;;;2.00;1.20;;;14.00;57.70;;;;;;10291752;28;20451;-57
2021/01/29 06:44:34;;;;;;;1.67;1.10;;;14.00;57.70;;;;;;10292005;28;20483;-57
2021/01/29 06:49:47;;;;;;;2.63;1.05;;;14.00;57.60;;;;;;10284976;28;20023;-58
2021/01/29 06:55:32;;;;;;;1.42;0.95;;;14.00;57.80;;;;;;10284628;28;20077;-57
2021/01/29 07:01:03;;;;;;;1.42;0.90;;;14.10;57.70;;;;;;10284660;28;20114;-57
2021/01/29 07:06:09;;;;;;;;;;;14.10;57.70;;;;;;10271025;28;20031;-57
2021/01/29 07:11:19;;;;;;;1.77;1.10;;;14.00;57.80;;;;;;10278999;28;19918;-57
2021/01/29 07:16:32;;;;;;;1.70;1.02;;;14.00;57.80;;;;;;10285388;28;20058;-57
2021/01/29 07:22:02;;;;;;;1.10;0.77;;;14.10;57.80;;;;;;10275730;28;20019;-57
2021/01/29 07:27:20;;;;;;;1.85;1.02;;;14.20;57.60;;;;;;10279492;28;20395;-58
2021/01/29 07:33:00;;;;;;;1.85;0.90;;;14.20;58.20;;;;;;10278266;28;20026;-57
2021/01/29 07:38:51;;;;;;;1.17;0.77;;;14.20;57.50;;;;;;10291277;28;20031;-57
2021/01/29 07:44:55;;;;;;;1.90;1.03;;;14.20;57.60;;;;;;10280538;28;20389;-58
2021/01/29 07:50:20;;;;;;;1.20;0.60;;;14.20;57.60;;;;;;10249497;28;20050;-57
2021/01/29 07:55:27;;;;;;;1.25;0.80;;;14.20;57.70;;;;;;10287537;28;20027;-57
2021/01/29 08:00:43;;;;;;;1.55;0.82;;;14.20;57.70;;;;;;10290313;28;20037;-57
2021/01/29 08:06:19;;;;;;;0.93;0.60;;;14.20;57.70;;;;;;10280113;28;20082;-57
2021/01/29 08:11:20;;;;;;;1.48;0.82;;;14.30;57.60;;;;;;10276962;28;20082;-58
2021/01/29 08:17:08;;;;;;;2.28;1.10;;;14.30;57.60;;;;;;10282084;28;20023;-58
2021/01/29 08:22:29;;;;;;;1.02;0.80;;;14.30;57.60;;;;;;10279144;28;20504;-57
2021/01/29 08:27:58;;;;;;;1.35;1.00;;;14.30;57.60;;;;;;10280390;28;20055;-57
2021/01/29 08:33:41;;;;;;;1.27;0.77;;;14.30;57.60;;;;;;10293330;28;20023;-57
2021/01/29 08:38:55;;;;;;;1.15;0.70;;;14.30;57.60;;;;;;10285286;28;20117;-57
2021/01/29 08:44:16;;;;;;;1.23;0.88;;;14.40;57.70;;;;;;10277899;28;20034;-58
2021/01/29 08:49:29;;;;;;;1.88;0.80;;;14.40;57.60;;;;;;10290945;28;20054;-57
2021/01/29 08:55:00;;;;;;;1.50;0.73;;;14.40;57.60;;;;;;10296600;28;20114;-57
2021/01/29 09:00:04;;;;;;;1.83;0.80;;;14.40;57.60;;;;;;10296346;28;20034;-57
2021/01/29 09:05:22;;;;;;;1.35;0.70;;;14.40;57.70;;;;;;10280158;28;20472;-58
2021/01/29 09:10:57;;;;;;;1.65;0.63;;;14.40;57.60;;;;;;10296007;28;20043;-58
2021/01/29 09:16:32;;;;;;;1.60;0.80;;;14.40;57.60;;;;;;10296901;28;20042;-58
2021/01/29 09:22:06;;;;;;;1.50;0.80;;;14.40;57.60;;;;;;10293394;28;20096;-57
2021/01/29 09:27:36;;;;;;;1.30;0.60;;;14.50;57.80;;;;;;10274573;28;20031;-58
2021/01/29 09:32:50;;;;;;;2.13;0.80;;;14.50;57.70;;;;;;10295477;28;20030;-57
2021/01/29 09:37:54;;;;;;;1.48;0.70;;;14.40;57.70;;;;;;10294986;28;20114;-57
2021/01/29 09:43:27;;;;;;;1.30;0.70;;;14.50;57.70;;;;;;10293515;28;20053;-57
2021/01/29 09:48:28;;;;;;;1.65;0.65;;;14.50;57.70;;;;;;10286609;28;20039;-58
2021/01/29 09:53:35;;;;;;;1.42;0.70;;;14.50;57.70;;;;;;10290641;28;20018;-58
2021/01/29 09:58:44;;;;;;;1.63;0.85;;;14.50;57.70;;;;;;10294306;28;20035;-57
2021/01/29 10:04:03;;;;;;;1.52;0.73;;;14.60;57.70;;;;;;10294794;28;20031;-57
2021/01/29 10:09:16;;;;;;;1.38;0.80;;;14.60;57.60;;;;;;10293651;28;20042;-58
2021/01/29 10:14:27;;;;;;;1.95;0.95;;;14.60;57.60;;;;;;10293372;28;20049;-57
2021/01/29 10:19:30;;;;;;;2.25;0.73;;;14.60;57.70;;;;;;10293083;28;20035;-58
2021/01/29 10:25:05;;;;;;;2.15;0.70;;;14.60;57.60;;;;;;10285214;28;20070;-58
2021/01/29 10:30:35;;;;;;;2.55;0.95;;;14.60;57.50;;;;;;10292339;28;20031;-58
2021/01/29 10:35:58;;;;;;;3.55;1.17;;;14.60;57.70;;;;;;10282688;28;20050;-54
2021/01/29 10:41:18;;;;;;;3.47;1.25;;;14.60;58.00;;;;;;10293479;28;20050;-56
2021/01/29 10:46:37;;;;;;;14.15;2.33;;;14.80;58.20;;;;;;10291850;28;20045;-56
2021/01/29 10:51:45;;;;;;;5.70;2.10;;;14.80;59.00;;;;;;10283886;28;20058;-57
2021/01/29 10:57:17;;;;;;;7.97;1.98;;;14.80;59.30;;;;;;10269894;28;20494;-56
2021/01/29 11:02:47;;;;;;;8.57;2.53;;;14.80;59.60;;;;;;10279113;28;20365;-56
2021/01/29 11:07:50;;;;;;;;;;;14.80;59.50;;;;;;10279534;28;20055;-56
2021/01/29 11:13:20;;;;;;;16.63;3.13;;;15.00;59.50;;;;;;10287222;28;19970;-55
2021/01/29 11:18:30;;;;;;;18.05;3.15;;;15.30;59.70;;;;;;10279196;28;20034;-57
2021/01/29 11:23:41;;;;;;;10.32;2.00;;;15.50;59.40;;;;;;10291598;28;20033;-54
2021/01/29 11:29:16;;;;;;;8.68;1.45;;;15.70;60.10;;;;;;10291282;28;20035;-55
2021/01/29 11:34:31;;;;;;;11.77;2.50;;;15.80;60.00;;;;;;10292736;28;20027;-55
2021/01/29 11:39:51;;;;;;;9.73;1.92;;;15.90;60.20;;;;;;10291312;28;20033;-53
2021/01/29 11:45:22;;;;;;;12.25;2.05;;;16.00;59.80;;;;;;10283163;28;20084;-56
2021/01/29 11:50:41;;;;;;;12.07;2.22;;;16.10;59.10;;;;;;10284906;28;20066;-56
2021/01/29 11:55:47;;;;;;;20.92;3.58;;;16.20;58.90;;;;;;10281975;28;20027;-58
2021/01/29 12:01:30;;;;;;;14.52;2.67;;;16.30;58.90;;;;;;10286255;28;20066;-59
2021/01/29 12:06:48;;;;;;;19.55;3.22;;;16.40;59.50;;;;;;10291482;28;20050;-59
2021/01/29 12:11:57;;;;;;;14.15;2.15;;;16.50;58.90;;;;;;10285867;28;20027;-58
2021/01/29 12:17:04;;;;;;;9.45;2.08;;;16.60;58.80;;;;;;10299676;28;20065;-61
2021/01/29 12:22:26;;;;;;;10.40;2.20;;;16.60;58.40;;;;;;10298169;28;20108;-59
2021/01/29 12:27:45;;;;;;;20.23;3.00;;;16.80;58.10;;;;;;10299143;28;20094;-60
2021/01/29 12:33:22;;;;;;;15.90;2.95;;;16.80;57.70;;;;;;10297672;28;20438;-57
2021/01/29 12:38:53;;;;;;;22.58;3.70;;;16.90;57.50;;;;;;10290691;28;20041;-58
2021/01/29 12:44:29;;;;;;;21.65;3.55;;;17.00;57.80;;;;;;10287766;28;20498;-60
2021/01/29 12:50:00;;;;;;;15.48;3.38;;;17.10;57.60;;;;;;10288977;28;20027;-58
2021/01/29 12:55:15;;;;;;;16.27;2.95;;;17.10;57.70;;;;;;10287642;28;20035;-58
2021/01/29 13:00:32;;;;;;;10.80;2.40;;;17.10;58.30;;;;;;10278026;28;20392;-58
2021/01/29 13:05:54;;;;;;;15.60;2.75;;;17.30;57.70;;;;;;10289663;28;20482;-58
2021/01/29 13:11:06;;;;;;;21.98;5.03;;;17.40;57.60;;;;;;10294389;28;20085;-57
2021/01/29 13:16:37;;;;;;;16.95;3.38;;;17.40;57.70;;;;;;10277605;28;20070;-58
2021/01/29 13:21:53;;;;;;;13.65;2.55;;;17.50;57.90;;;;;;10294056;28;20523;-57
2021/01/29 13:26:56;;;;;;;18.83;3.05;;;17.50;58.00;;;;;;10288485;28;20483;-58
2021/01/29 13:32:34;;;;;;;15.80;2.90;;;17.60;57.90;;;;;;10292842;28;20030;-59
2021/01/29 13:37:37;;;;;;;15.35;2.97;;;17.60;57.60;;;;;;10289606;28;20026;-58
2021/01/29 13:42:41;;;;;;;17.05;3.90;;;17.60;57.40;;;;;;10286410;28;20430;-59
2021/01/29 13:47:59;;;;;;;15.73;3.38;;;17.60;57.40;;;;;;10283531;28;20034;-60
2021/01/29 13:53:08;;;;;;;15.90;3.45;;;17.50;57.50;;;;;;10289305;28;20042;-59
2021/01/29 13:58:29;;;;;;;10.88;1.92;;;17.40;57.70;;;;;;10294496;28;20124;-59
2021/01/29 14:03:37;;;;;;;11.20;2.30;;;17.20;58.00;;;;;;10280242;28;20035;-60
2021/01/29 14:08:40;;;;;;;9.35;2.53;;;17.10;58.20;;;;;;10291471;28;20042;-59
2021/01/29 14:14:14;;;;;;;7.38;2.47;;;17.10;58.30;;;;;;10286921;28;20106;-59
2021/01/29 14:19:58;;;;;;;7.05;2.30;;;17.10;58.20;;;;;;10294628;28;20507;-59
2021/01/29 14:25:28;;;;;;;10.43;2.78;;;17.00;58.20;;;;;;10294431;28;20618;-59
2021/01/29 14:31:01;;;;;;;6.28;1.80;;;16.90;58.20;;;;;;10296994;28;20031;-59
2021/01/29 14:36:16;;;;;;;4.18;1.30;;;16.90;58.40;;;;;;10293886;28;20421;-60
2021/01/29 14:41:32;;;;;;;6.93;2.00;;;16.90;58.40;;;;;;10282798;28;20027;-59
2021/01/29 14:47:12;;;;;;;5.03;1.80;;;16.80;58.20;;;;;;10287565;28;20062;-60
2021/01/29 14:52:16;;;;;;;10.07;2.07;;;16.80;58.20;;;;;;10291913;28;20058;-61
2021/01/29 14:57:29;;;;;;;14.10;1.90;;;16.80;59.30;;;;;;10292472;28;20041;-61
2021/01/29 15:02:53;;;;;;;15.65;3.50;;;16.80;59.60;;;;;;10283477;28;20043;-61
2021/01/29 15:07:56;;;;;;;13.40;3.03;;;16.80;60.50;;;;;;10285253;28;20496;-61
2021/01/29 15:12:58;;;;;;;12.35;2.20;;;16.80;61.90;;;;;;10288927;28;20046;-61
2021/01/29 15:18:02;;;;;;;16.05;3.30;;;16.80;61.60;;;;;;10280624;28;20058;-59
2021/01/29 15:23:29;;;;;;;23.80;3.30;;;16.80;61.60;;;;;;10291053;28;20035;-58
2021/01/29 15:28:36;;;;;;;22.98;3.22;;;16.80;61.60;;;;;;10274923;28;20035;-58
2021/01/29 15:33:53;;;;;;;15.70;3.80;;;16.80;62.50;;;;;;10287957;28;20081;-57
2021/01/29 15:39:09;;;;;;;12.80;3.50;;;16.80;63.10;;;;;;10278046;28;20031;-59
2021/01/29 15:44:22;;;;;;;14.52;3.08;;;16.90;62.60;;;;;;10277136;28;20079;-58
2021/01/29 15:49:22;;;;;;;18.23;3.63;;;16.80;62.20;;;;;;10277190;28;20027;-58
2021/01/29 15:54:23;;;;;;;17.48;2.63;;;16.80;62.20;;;;;;10285576;28;20030;-57
2021/01/29 15:59:36;;;;;;;8.70;2.17;;;16.80;62.20;;;;;;10283819;28;20058;-60
2021/01/29 16:04:53;;;;;;;12.55;2.53;;;16.90;61.90;;;;;;10288489;28;20038;-59
2021/01/29 16:09:57;;;;;;;12.63;2.22;;;16.90;62.20;;;;;;10288364;28;20035;-61
2021/01/29 16:15:22;;;;;;;9.70;2.10;;;16.90;62.00;;;;;;10285072;28;20398;-58
2021/01/29 16:20:32;;;;;;;11.82;3.22;;;16.90;61.90;;;;;;10284541;28;20043;-59
2021/01/29 16:25:35;;;;;;;18.73;2.95;;;16.90;61.30;;;;;;10290781;28;20027;-58
2021/01/29 16:30:38;;;;;;;15.52;2.33;;;16.80;61.20;;;;;;10291119;28;20074;-59
2021/01/29 16:35:53;;;;;;;16.63;2.95;;;16.90;61.00;;;;;;10280800;28;20065;-59
2021/01/29 16:40:55;;;;;;;18.83;4.13;;;16.90;60.80;;;;;;10299459;28;20031;-58
2021/01/29 16:45:59;;;;;;;18.05;3.58;;;16.80;60.80;;;;;;10284201;28;20514;-55
2021/01/29 16:51:17;;;;;;;21.20;4.63;;;16.70;60.80;;;;;;10284350;28;20031;-64
2021/01/29 16:56:24;;;;;;;25.02;4.20;;;16.70;60.70;;;;;;10293123;28;20034;-62
2021/01/29 17:01:33;;;;;;;24.05;3.85;;;16.70;60.50;;;;;;10284595;28;20480;-59
2021/01/29 17:06:44;;;;;;;16.70;3.35;;;16.70;60.40;;;;;;10288793;28;20122;-61
2021/01/29 17:11:45;;;;;;;22.67;4.03;;;16.90;60.10;;;;;;10289300;28;20031;-61
2021/01/29 17:16:59;;;;;;;21.10;3.63;;;17.10;59.60;;;;;;10288619;28;20026;-57
2021/01/29 17:22:32;;;;;;;31.13;4.00;;;17.20;62.40;;;;;;10296235;28;20138;-58
2021/01/29 17:27:36;;;;;;;12.40;3.38;;;17.40;62.60;;;;;;10289290;28;20054;-59
2021/01/29 17:32:40;;;;;;;14.45;2.92;;;17.40;62.70;;;;;;10283389;28;20023;-58
2021/01/29 17:37:41;;;;;;;19.40;3.40;;;17.50;62.50;;;;;;10294655;28;20061;-59
2021/01/29 17:42:45;;;;;;;18.95;2.60;;;17.60;62.60;;;;;;10295213;28;20042;-58
2021/01/29 17:47:46;;;;;;;16.77;2.90;;;17.70;61.90;;;;;;10293445;28;20035;-59
2021/01/29 17:52:49;;;;;;;15.40;2.65;;;17.70;61.60;;;;;;10287862;28;20480;-59
2021/01/29 17:57:50;;;;;;;14.07;3.08;;;17.80;61.10;;;;;;10293714;28;20034;-59
2021/01/29 18:03:01;;;;;;;7.10;2.35;;;17.90;61.00;;;;;;10292848;28;20030;-58
2021/01/29 18:08:07;;;;;;;11.00;2.45;;;17.90;60.50;;;;;;10289978;28;20554;-58
2021/01/29 18:13:12;;;;;;;5.90;1.85;;;17.90;60.30;;;;;;10307707;28;20031;-59
2021/01/29 18:18:25;;;;;;;8.68;2.42;;;18.00;60.20;;;;;;10290932;28;20031;-59
2021/01/29 18:23:40;;;;;;;8.23;2.17;;;18.10;59.90;;;;;;10284853;28;20034;-60
2021/01/29 18:28:41;;;;;;;15.57;1.95;;;18.20;59.80;;;;;;10285864;28;20121;-58
2021/01/29 18:33:45;;;;;;;7.70;1.83;;;18.20;60.20;;;;;;10293124;28;20015;-59
2021/01/29 18:38:48;;;;;;;8.70;1.77;;;18.20;60.40;;;;;;10288004;28;20102;-59
2021/01/29 18:43:49;;;;;;;8.82;2.13;;;18.20;60.40;;;;;;10285745;28;20027;-60
2021/01/29 18:48:50;;;;;;;6.68;1.88;;;18.10;60.50;;;;;;10303133;28;20133;-61
2021/01/29 18:53:51;;;;;;;5.45;1.73;;;18.00;60.60;;;;;;10281830;28;20034;-61
2021/01/29 18:58:53;;;;;;;7.80;2.00;;;17.90;60.80;;;;;;10287551;28;20023;-61
2021/01/29 19:03:56;;;;;;;5.63;1.67;;;17.90;61.10;;;;;;10281099;28;20023;-60
2021/01/29 19:08:59;;;;;;;7.13;2.05;;;17.80;61.20;;;;;;10292680;28;20043;-62
2021/01/29 19:13:59;;;;;;;6.63;2.35;;;17.80;61.40;;;;;;10284452;28;20117;-63
2021/01/29 19:19:00;;;;;;;5.70;1.60;;;17.80;61.50;;;;;;10277312;28;20447;-62
2021/01/29 19:24:01;;;;;;;5.25;1.52;;;17.80;61.50;;;;;;10283913;28;20491;-64
2021/01/29 19:29:01;;;;;;;8.63;2.05;;;17.80;61.40;;;;;;10295635;28;20525;-63
2021/01/29 19:34:02;;;;;;;6.00;1.92;;;17.90;61.20;;;;;;10286035;28;20447;-61
2021/01/29 19:39:06;;;;;;;10.20;2.38;;;18.00;61.10;;;;;;10284663;28;20030;-62
2021/01/29 19:44:07;;;;;;;6.75;1.73;;;18.10;60.70;;;;;;10285630;28;20039;-58
2021/01/29 19:49:08;;;;;;;8.18;1.50;;;18.20;60.30;;;;;;10274734;28;20027;-58
2021/01/29 19:54:10;;;;;;;6.78;1.90;;;18.40;59.80;;;;;;10262217;28;20042;-60
2021/01/29 19:59:10;;;;;;;4.88;1.13;;;18.50;59.60;;;;;;10272117;28;20086;-60
2021/01/29 20:04:14;;;;;;;8.80;1.48;;;18.60;59.50;;;;;;10275085;28;20038;-59
2021/01/29 20:09:14;;;;;;;3.33;1.13;;;18.70;59.30;;;;;;10276441;28;20047;-61
2021/01/29 20:14:18;;;;;;;3.05;1.00;;;18.70;59.30;;;;;;10270891;28;20031;-59
2021/01/29 20:19:19;;;;;;;6.72;1.60;;;18.60;59.40;;;;;;10264856;28;20038;-59
2021/01/29 20:24:19;;;;;;;6.03;1.33;;;18.50;59.50;;;;;;10270667;28;20114;-58
2021/01/29 20:29:20;;;;;;;5.03;1.73;;;18.50;59.90;;;;;;10290140;28;20027;-62
2021/01/29 20:34:21;;;;;;;5.25;1.60;;;18.40;59.80;;;;;;10298434;28;20027;-61
2021/01/29 20:39:23;;;;;;;2.13;0.90;;;18.40;59.60;;;;;;10293492;28;20069;-62
2021/01/29 20:44:24;;;;;;;3.08;1.25;;;18.30;59.60;;;;;;10285858;28;20027;-61
2021/01/29 20:49:25;;;;;;;6.65;1.17;;;18.30;59.70;;;;;;10284328;28;20110;-62
2021/01/29 20:54:25;;;;;;;2.08;0.63;;;18.30;59.60;;;;;;10290893;28;20109;-62
2021/01/29 20:59:26;;;;;;;2.72;0.93;;;18.40;59.30;;;;;;10291892;28;20398;-61
2021/01/29 21:04:30;;;;;;;1.80;0.70;;;18.50;59.10;;;;;;10295862;28;20475;-61
2021/01/29 21:09:31;;;;;;;3.47;0.85;;;18.50;58.80;;;;;;10296270;28;20054;-61
2021/01/29 21:14:32;;;;;;;2.70;0.75;;;18.50;58.90;;;;;;10291618;28;20035;-62
2021/01/29 21:19:32;;;;;;;4.07;0.90;;;18.50;58.70;;;;;;10294989;28;20043;-62
2021/01/29 21:24:33;;;;;;;3.83;0.95;;;18.50;58.70;;;;;;10294816;28;20117;-61
2021/01/29 21:29:33;;;;;;;2.25;0.70;;;18.50;58.70;;;;;;10294185;28;20037;-61
2021/01/29 21:34:34;;;;;;;3.22;1.17;;;18.50;58.60;;;;;;10296752;28;20101;-61
2021/01/29 21:39:35;;;;;;;2.95;0.60;;;18.50;58.50;;;;;;10295290;28;20037;-61
2021/01/29 21:44:37;;;;;;;2.00;0.85;;;18.50;58.50;;;;;;10296245;28;20027;-62
2021/01/29 21:49:38;;;;;;;3.08;0.90;;;18.50;58.50;;;;;;10286776;28;20387;-61
2021/01/29 21:54:45;;;;;;;2.35;0.52;;;18.50;58.50;;;;;;10295787;28;20026;-61
2021/01/29 21:59:46;;;;;;;2.38;0.73;;;18.50;58.50;;;;;;10294728;28;20062;-61
2021/01/29 22:04:47;;;;;;;2.05;0.70;;;18.50;58.50;;;;;;10295657;28;20030;-61
2021/01/29 22:09:47;;;;;;;3.42;0.73;;;18.50;58.50;;;;;;10295143;28;20121;-62
2021/01/29 22:14:48;;;;;;;1.98;0.68;;;18.50;58.50;;;;;;10290484;28;20073;-62
2021/01/29 22:19:49;;;;;;;1.60;0.68;;;18.50;58.40;;;;;;10286321;28;20043;-62
2021/01/29 22:24:50;;;;;;;1.23;0.47;;;18.50;58.30;;;;;;10293641;28;20035;-61
2021/01/29 22:29:52;;;;;;;3.72;1.00;;;18.50;58.30;;;;;;10293252;28;20495;-61
2021/01/29 22:34:53;;;;;;;3.35;0.63;;;18.50;58.20;;;;;;10293298;28;20027;-61
2021/01/29 22:39:56;;;;;;;1.75;0.50;;;18.50;58.30;;;;;;10294213;28;20035;-62
2021/01/29 22:44:57;;;;;;;1.48;0.50;;;18.50;58.30;;;;;;10294120;28;20110;-62
2021/01/29 22:49:57;;;;;;;2.03;0.70;;;18.50;58.30;;;;;;10284389;28;20456;-61
2021/01/29 22:54:58;;;;;;;1.42;0.60;;;18.50;58.30;;;;;;10293791;28;20022;-62
2021/01/29 22:59:59;;;;;;;1.98;0.80;;;18.50;58.30;;;;;;10293608;28;20117;-61
2021/01/29 23:05:00;;;;;;;1.52;0.50;;;18.50;58.20;;;;;;10293456;28;20027;-61
2021/01/29 23:10:00;;;;;;;1.08;0.55;;;18.50;58.20;;;;;;10291924;28;20125;-61
2021/01/29 23:15:04;;;;;;;0.85;0.45;;;18.50;58.10;;;;;;10288389;28;20053;-62
2021/01/29 23:20:23;;;;;;;1.88;0.60;;;18.50;58.00;;;;;;10293698;28;20038;-61
2021/01/29 23:25:29;;;;;;;1.98;0.50;;;18.50;58.00;;;;;;10292610;28;20042;-61
2021/01/29 23:30:31;;;;;;;2.28;0.60;;;18.50;58.10;;;;;;10292671;28;20037;-62
2021/01/29 23:35:35;;;;;;;1.25;0.47;;;18.40;58.00;;;;;;10291427;28;20049;-61
2021/01/29 23:40:37;;;;;;;1.30;0.60;;;18.50;58.10;;;;;;10291424;28;20050;-61
2021/01/29 23:45:38;;;;;;;0.70;0.32;;;18.50;58.10;;;;;;10292198;28;20109;-61
2021/01/29 23:50:40;;;;;;;1.33;0.50;;;18.50;58.00;;;;;;10283056;28;20117;-62
2021/01/29 23:55:41;;;;;;;1.23;0.30;;;18.50;57.90;;;;;;10277670;28;20387;-61
